sensor_id;sensor_type;location;lat;lon;timestamp;pressure;altitude;pressure_sealevel;temperature;humidity
56681;BME280;42558;52.388;13.390;2022-07-01T00:02:04;100711.40;;;20.80;87.10
56681;BME280;42558;52.388;13.390;2022-07-01T00:04:31;100712.91;;;20.71;87.84
56681;BME280;42558;52.388;13.390;2022-07-01T00:06:58;100711.02;;;20.69;88.08
56681;BME280;42558;52.388;13.390;2022-07-01T00:09:25;100710.30;;;20.69;88.28
56681;BME280;42558;52.388;13.390;2022-07-01T00:11:53;100711.44;;;20.73;87.99
56681;BME280;42558;52.388;13.390;2022-07-01T00:14:21;100706.93;;;20.68;88.25
56681;BME280;42558;52.388;13.390;2022-07-01T00:16:50;100700.86;;;20.68;88.49
56681;BME280;42558;52.388;13.390;2022-07-01T00:19:17;100705.19;;;20.72;88.30
56681;BME280;42558;52.388;13.390;2022-07-01T00:21:45;100703.92;;;20.73;88.00
56681;BME280;42558;52.388;13.390;2022-07-01T00:24:12;100703.15;;;20.81;87.01
56681;BME280;42558;52.388;13.390;2022-07-01T00:26:39;100697.34;;;20.78;87.54
56681;BME280;42558;52.388;13.390;2022-07-01T00:29:06;100692.52;;;20.72;87.93
56681;BME280;42558;52.388;13.390;2022-07-01T00:31:32;100691.48;;;20.58;89.24
56681;BME280;42558;52.388;13.390;2022-07-01T00:33:59;100687.94;;;20.51;89.65
56681;BME280;42558;52.388;13.390;2022-07-01T00:36:26;100690.49;;;20.49;90.11
56681;BME280;42558;52.388;13.390;2022-07-01T00:38:58;100689.84;;;20.47;90.25
56681;BME280;42558;52.388;13.390;2022-07-01T00:41:25;100692.04;;;20.45;90.62
56681;BME280;42558;52.388;13.390;2022-07-01T00:43:52;100684.52;;;20.45;90.55
56681;BME280;42558;52.388;13.390;2022-07-01T00:46:23;100685.63;;;20.44;90.67
56681;BME280;42558;52.388;13.390;2022-07-01T00:48:55;100690.54;;;20.40;91.29
56681;BME280;42558;52.388;13.390;2022-07-01T00:51:23;100690.41;;;20.37;91.41
56681;BME280;42558;52.388;13.390;2022-07-01T00:53:50;100689.84;;;20.33;91.83
56681;BME280;42558;52.388;13.390;2022-07-01T00:56:18;100692.40;;;20.31;92.21
56681;BME280;42558;52.388;13.390;2022-07-01T00:58:45;100691.66;;;20.31;92.18
56681;BME280;42558;52.388;13.390;2022-07-01T01:01:12;100696.13;;;20.31;92.33
56681;BME280;42558;52.388;13.390;2022-07-01T01:03:39;100694.84;;;20.27;92.61
56681;BME280;42558;52.388;13.390;2022-07-01T01:06:09;100699.35;;;20.24;92.87
56681;BME280;42558;52.388;13.390;2022-07-01T01:08:37;100696.64;;;20.26;92.71
56681;BME280;42558;52.388;13.390;2022-07-01T01:11:06;100696.29;;;20.32;92.56
56681;BME280;42558;52.388;13.390;2022-07-01T01:13:33;100689.49;;;20.39;91.32
56681;BME280;42558;52.388;13.390;2022-07-01T01:16:00;100695.18;;;20.40;91.27
56681;BME280;42558;52.388;13.390;2022-07-01T01:18:27;100688.30;;;20.36;91.34
56681;BME280;42558;52.388;13.390;2022-07-01T01:20:55;100681.64;;;20.32;91.67
56681;BME280;42558;52.388;13.390;2022-07-01T01:23:22;100683.86;;;20.29;91.63
56681;BME280;42558;52.388;13.390;2022-07-01T01:25:49;100682.50;;;20.21;92.64
56681;BME280;42558;52.388;13.390;2022-07-01T01:28:16;100681.63;;;20.19;92.83
56681;BME280;42558;52.388;13.390;2022-07-01T01:30:43;100674.84;;;20.33;91.47
56681;BME280;42558;52.388;13.390;2022-07-01T01:33:10;100676.86;;;20.31;91.12
56681;BME280;42558;52.388;13.390;2022-07-01T01:35:38;100675.79;;;20.25;91.90
56681;BME280;42558;52.388;13.390;2022-07-01T01:38:05;100675.73;;;20.14;93.19
56681;BME280;42558;52.388;13.390;2022-07-01T01:40:32;100673.10;;;20.12;93.70
56681;BME280;42558;52.388;13.390;2022-07-01T01:42:59;100677.95;;;20.24;92.48
56681;BME280;42558;52.388;13.390;2022-07-01T01:45:26;100670.82;;;20.17;92.81
56681;BME280;42558;52.388;13.390;2022-07-01T01:47:53;100666.88;;;20.11;92.95
56681;BME280;42558;52.388;13.390;2022-07-01T01:50:21;100661.45;;;19.94;95.02
56681;BME280;42558;52.388;13.390;2022-07-01T01:52:47;100662.48;;;19.89;95.63
56681;BME280;42558;52.388;13.390;2022-07-01T01:55:14;100658.03;;;19.89;96.13
56681;BME280;42558;52.388;13.390;2022-07-01T01:57:41;100651.89;;;19.98;94.89
56681;BME280;42558;52.388;13.390;2022-07-01T02:00:09;100645.35;;;19.89;95.34
56681;BME280;42558;52.388;13.390;2022-07-01T02:02:36;100640.44;;;19.79;96.83
56681;BME280;42558;52.388;13.390;2022-07-01T02:05:07;100632.13;;;19.76;97.41
56681;BME280;42558;52.388;13.390;2022-07-01T02:07:34;100628.48;;;19.72;97.69
56681;BME280;42558;52.388;13.390;2022-07-01T02:10:03;100632.02;;;19.73;97.93
56681;BME280;42558;52.388;13.390;2022-07-01T02:12:30;100635.01;;;19.75;97.27
56681;BME280;42558;52.388;13.390;2022-07-01T02:14:56;100638.36;;;19.83;97.11
56681;BME280;42558;52.388;13.390;2022-07-01T02:17:23;100640.30;;;19.91;95.44
56681;BME280;42558;52.388;13.390;2022-07-01T02:19:52;100643.39;;;19.95;95.33
56681;BME280;42558;52.388;13.390;2022-07-01T02:22:19;100646.23;;;19.89;95.43
56681;BME280;42558;52.388;13.390;2022-07-01T02:24:46;100646.55;;;19.83;96.22
56681;BME280;42558;52.388;13.390;2022-07-01T02:27:12;100648.11;;;19.78;96.27
56681;BME280;42558;52.388;13.390;2022-07-01T02:29:39;100644.98;;;19.82;96.23
56681;BME280;42558;52.388;13.390;2022-07-01T02:32:08;100648.43;;;19.80;95.48
56681;BME280;42558;52.388;13.390;2022-07-01T02:34:35;100648.59;;;19.67;97.04
56681;BME280;42558;52.388;13.390;2022-07-01T02:37:02;100652.91;;;19.58;98.60
56681;BME280;42558;52.388;13.390;2022-07-01T02:39:29;100654.17;;;19.57;98.86
56681;BME280;42558;52.388;13.390;2022-07-01T02:41:56;100658.82;;;19.57;99.11
56681;BME280;42558;52.388;13.390;2022-07-01T02:44:42;100660.95;;;19.58;98.68
56681;BME280;42558;52.388;13.390;2022-07-01T02:47:09;100667.23;;;19.55;98.99
56681;BME280;42558;52.388;13.390;2022-07-01T02:49:35;100669.97;;;19.53;99.52
56681;BME280;42558;52.388;13.390;2022-07-01T02:52:03;100667.30;;;19.52;99.77
56681;BME280;42558;52.388;13.390;2022-07-01T02:54:30;100667.77;;;19.48;99.97
56681;BME280;42558;52.388;13.390;2022-07-01T02:56:56;100677.27;;;19.46;100.00
56681;BME280;42558;52.388;13.390;2022-07-01T02:59:23;100680.11;;;19.53;100.00
56681;BME280;42558;52.388;13.390;2022-07-01T03:01:50;100680.14;;;19.53;100.00
56681;BME280;42558;52.388;13.390;2022-07-01T03:04:17;100676.42;;;19.51;100.00
56681;BME280;42558;52.388;13.390;2022-07-01T03:06:45;100681.68;;;19.48;100.00
56681;BME280;42558;52.388;13.390;2022-07-01T03:09:12;100681.47;;;19.49;100.00
56681;BME280;42558;52.388;13.390;2022-07-01T03:11:39;100676.67;;;19.56;100.00
56681;BME280;42558;52.388;13.390;2022-07-01T03:14:05;100677.39;;;19.64;99.25
56681;BME280;42558;52.388;13.390;2022-07-01T03:16:32;100682.06;;;19.54;99.81
56681;BME280;42558;52.388;13.390;2022-07-01T03:18:59;100683.60;;;19.57;100.00
56681;BME280;42558;52.388;13.390;2022-07-01T03:21:28;100682.13;;;19.59;99.77
56681;BME280;42558;52.388;13.390;2022-07-01T03:23:54;100686.58;;;19.52;100.00
56681;BME280;42558;52.388;13.390;2022-07-01T03:26:22;100682.65;;;19.45;100.00
56681;BME280;42558;52.388;13.390;2022-07-01T03:28:48;100676.54;;;19.39;100.00
56681;BME280;42558;52.388;13.390;2022-07-01T03:31:15;100673.67;;;19.47;100.00
56681;BME280;42558;52.388;13.390;2022-07-01T03:33:42;100673.73;;;19.60;100.00
56681;BME280;42558;52.388;13.390;2022-07-01T03:36:09;100674.89;;;19.71;99.72
56681;BME280;42558;52.388;13.390;2022-07-01T03:38:35;100679.63;;;19.81;98.81
56681;BME280;42558;52.388;13.390;2022-07-01T03:41:02;100678.15;;;19.69;98.67
56681;BME280;42558;52.388;13.390;2022-07-01T03:43:29;100676.31;;;19.64;99.91
56681;BME280;42558;52.388;13.390;2022-07-01T03:45:56;100679.41;;;19.76;99.20
56681;BME280;42558;52.388;13.390;2022-07-01T03:48:23;100679.84;;;19.66;99.68
56681;BME280;42558;52.388;13.390;2022-07-01T03:50:50;100678.92;;;19.67;99.85
56681;BME280;42558;52.388;13.390;2022-07-01T03:53:17;100677.77;;;19.63;100.00
56681;BME280;42558;52.388;13.390;2022-07-01T03:56:02;100677.92;;;19.64;100.00
56681;BME280;42558;52.388;13.390;2022-07-01T03:58:29;100676.92;;;19.69;100.00
56681;BME280;42558;52.388;13.390;2022-07-01T04:00:56;100669.83;;;19.67;100.00
56681;BME280;42558;52.388;13.390;2022-07-01T04:03:22;100670.61;;;19.71;100.00
56681;BME280;42558;52.388;13.390;2022-07-01T04:05:49;100669.70;;;19.72;100.00
56681;BME280;42558;52.388;13.390;2022-07-01T04:08:17;100664.48;;;19.73;100.00
56681;BME280;42558;52.388;13.390;2022-07-01T04:10:44;100666.15;;;19.78;100.00
56681;BME280;42558;52.388;13.390;2022-07-01T04:13:10;100669.84;;;19.80;100.00
56681;BME280;42558;52.388;13.390;2022-07-01T04:15:58;100674.41;;;19.83;100.00
56681;BME280;42558;52.388;13.390;2022-07-01T04:18:28;100682.30;;;19.88;100.00
56681;BME280;42558;52.388;13.390;2022-07-01T04:20:55;100683.02;;;19.95;100.00
56681;BME280;42558;52.388;13.390;2022-07-01T04:23:40;100682.59;;;20.04;99.99
56681;BME280;42558;52.388;13.390;2022-07-01T04:26:07;100686.42;;;20.08;99.91
56681;BME280;42558;52.388;13.390;2022-07-01T04:28:55;100686.52;;;20.11;99.63
56681;BME280;42558;52.388;13.390;2022-07-01T04:31:21;100691.33;;;20.18;99.52
56681;BME280;42558;52.388;13.390;2022-07-01T04:33:49;100691.14;;;20.18;99.48
56681;BME280;42558;52.388;13.390;2022-07-01T04:36:17;100690.98;;;20.24;99.51
56681;BME280;42558;52.388;13.390;2022-07-01T04:38:44;100687.73;;;20.25;99.40
56681;BME280;42558;52.388;13.390;2022-07-01T04:41:12;100680.14;;;20.29;99.35
56681;BME280;42558;52.388;13.390;2022-07-01T04:43:57;100685.88;;;20.34;99.54
56681;BME280;42558;52.388;13.390;2022-07-01T04:46:24;100683.87;;;20.43;99.28
56681;BME280;42558;52.388;13.390;2022-07-01T04:48:51;100678.22;;;20.54;98.64
56681;BME280;42558;52.388;13.390;2022-07-01T04:51:18;100670.42;;;20.64;98.27
56681;BME280;42558;52.388;13.390;2022-07-01T04:53:46;100674.56;;;20.75;97.98
56681;BME280;42558;52.388;13.390;2022-07-01T04:56:13;100671.97;;;20.84;97.40
56681;BME280;42558;52.388;13.390;2022-07-01T04:58:40;100666.98;;;20.89;96.77
56681;BME280;42558;52.388;13.390;2022-07-01T05:01:06;100664.54;;;20.99;96.52
56681;BME280;42558;52.388;13.390;2022-07-01T05:03:33;100665.27;;;21.10;96.08
56681;BME280;42558;52.388;13.390;2022-07-01T05:06:01;100664.02;;;21.21;95.28
56681;BME280;42558;52.388;13.390;2022-07-01T05:08:28;100666.58;;;21.37;95.31
56681;BME280;42558;52.388;13.390;2022-07-01T05:10:55;100671.41;;;21.53;94.28
56681;BME280;42558;52.388;13.390;2022-07-01T05:13:22;100678.42;;;21.68;93.50
56681;BME280;42558;52.388;13.390;2022-07-01T05:15:50;100678.36;;;21.86;92.76
56681;BME280;42558;52.388;13.390;2022-07-01T05:18:17;100679.70;;;22.05;91.69
56681;BME280;42558;52.388;13.390;2022-07-01T05:21:03;100677.80;;;22.13;90.08
56681;BME280;42558;52.388;13.390;2022-07-01T05:23:49;100680.00;;;22.32;89.17
56681;BME280;42558;52.388;13.390;2022-07-01T05:26:16;100686.92;;;22.48;88.42
56681;BME280;42558;52.388;13.390;2022-07-01T05:28:45;100695.03;;;22.76;87.71
56681;BME280;42558;52.388;13.390;2022-07-01T05:31:15;100704.97;;;22.89;86.39
56681;BME280;42558;52.388;13.390;2022-07-01T05:33:42;100710.26;;;22.81;85.98
56681;BME280;42558;52.388;13.390;2022-07-01T05:36:10;100703.92;;;22.63;86.26
56681;BME280;42558;52.388;13.390;2022-07-01T05:38:38;100706.96;;;22.63;86.69
56681;BME280;42558;52.388;13.390;2022-07-01T05:41:05;100711.70;;;22.71;86.99
56681;BME280;42558;52.388;13.390;2022-07-01T05:43:33;100712.15;;;22.88;86.73
56681;BME280;42558;52.388;13.390;2022-07-01T05:46:01;100721.15;;;22.92;86.06
56681;BME280;42558;52.388;13.390;2022-07-01T05:48:29;100737.70;;;22.95;85.62
56681;BME280;42558;52.388;13.390;2022-07-01T05:50:56;100750.30;;;22.94;85.59
56681;BME280;42558;52.388;13.390;2022-07-01T05:53:23;100759.93;;;22.96;85.50
56681;BME280;42558;52.388;13.390;2022-07-01T05:55:49;100765.09;;;22.87;85.17
56681;BME280;42558;52.388;13.390;2022-07-01T05:58:17;100765.98;;;22.87;85.71
56681;BME280;42558;52.388;13.390;2022-07-01T06:00:44;100762.27;;;22.75;84.95
56681;BME280;42558;52.388;13.390;2022-07-01T06:03:13;100761.25;;;22.74;85.04
56681;BME280;42558;52.388;13.390;2022-07-01T06:05:41;100762.46;;;22.75;84.94
56681;BME280;42558;52.388;13.390;2022-07-01T06:08:09;100761.81;;;22.73;84.71
56681;BME280;42558;52.388;13.390;2022-07-01T06:10:36;100762.42;;;22.62;84.85
56681;BME280;42558;52.388;13.390;2022-07-01T06:13:05;100767.06;;;22.62;85.02
56681;BME280;42558;52.388;13.390;2022-07-01T06:15:32;100766.98;;;22.54;85.21
56681;BME280;42558;52.388;13.390;2022-07-01T06:17:59;100768.15;;;22.46;86.04
56681;BME280;42558;52.388;13.390;2022-07-01T06:20:26;100765.56;;;22.59;85.79
56681;BME280;42558;52.388;13.390;2022-07-01T06:22:53;100761.30;;;22.73;85.25
56681;BME280;42558;52.388;13.390;2022-07-01T06:25:20;100761.14;;;22.77;84.73
56681;BME280;42558;52.388;13.390;2022-07-01T06:27:47;100757.77;;;22.96;83.92
56681;BME280;42558;52.388;13.390;2022-07-01T06:30:14;100761.36;;;22.96;82.91
56681;BME280;42558;52.388;13.390;2022-07-01T06:32:41;100767.77;;;23.16;82.45
56681;BME280;42558;52.388;13.390;2022-07-01T06:35:08;100768.02;;;23.28;80.95
56681;BME280;42558;52.388;13.390;2022-07-01T06:37:36;100767.21;;;23.21;81.22
56681;BME280;42558;52.388;13.390;2022-07-01T06:40:06;100771.27;;;23.13;81.72
56681;BME280;42558;52.388;13.390;2022-07-01T06:42:33;100778.63;;;23.32;81.95
56681;BME280;42558;52.388;13.390;2022-07-01T06:45:01;100778.09;;;23.36;80.60
56681;BME280;42558;52.388;13.390;2022-07-01T06:47:28;100776.32;;;23.36;80.55
56681;BME280;42558;52.388;13.390;2022-07-01T06:49:55;100771.45;;;23.46;80.83
56681;BME280;42558;52.388;13.390;2022-07-01T06:52:27;100767.54;;;23.58;80.30
56681;BME280;42558;52.388;13.390;2022-07-01T06:54:54;100760.55;;;23.58;79.90
56681;BME280;42558;52.388;13.390;2022-07-01T06:57:21;100756.75;;;23.59;79.45
56681;BME280;42558;52.388;13.390;2022-07-01T06:59:48;100756.98;;;23.66;79.54
56681;BME280;42558;52.388;13.390;2022-07-01T07:02:15;100751.44;;;23.84;78.50
56681;BME280;42558;52.388;13.390;2022-07-01T07:04:42;100747.09;;;24.02;77.26
56681;BME280;42558;52.388;13.390;2022-07-01T07:07:25;100747.70;;;24.46;76.36
56681;BME280;42558;52.388;13.390;2022-07-01T07:09:51;100747.23;;;24.81;74.58
56681;BME280;42558;52.388;13.390;2022-07-01T07:12:18;100748.44;;;25.33;73.10
56681;BME280;42558;52.388;13.390;2022-07-01T07:14:46;100748.88;;;25.46;71.63
56681;BME280;42558;52.388;13.390;2022-07-01T07:17:13;100742.84;;;25.67;70.94
56681;BME280;42558;52.388;13.390;2022-07-01T07:19:39;100737.27;;;25.73;69.52
56681;BME280;42558;52.388;13.390;2022-07-01T07:22:06;100740.11;;;25.82;69.15
56681;BME280;42558;52.388;13.390;2022-07-01T07:24:33;100746.05;;;25.64;69.13
56681;BME280;42558;52.388;13.390;2022-07-01T07:27:00;100745.95;;;24.89;70.38
56681;BME280;42558;52.388;13.390;2022-07-01T07:29:27;100746.95;;;24.63;69.93
56681;BME280;42558;52.388;13.390;2022-07-01T07:31:54;100745.02;;;24.54;69.19
56681;BME280;42558;52.388;13.390;2022-07-01T07:34:21;100740.65;;;24.56;68.11
56681;BME280;42558;52.388;13.390;2022-07-01T07:36:48;100740.50;;;24.67;68.74
56681;BME280;42558;52.388;13.390;2022-07-01T07:39:15;100742.27;;;24.92;68.48
56681;BME280;42558;52.388;13.390;2022-07-01T07:41:42;100742.63;;;24.87;65.97
56681;BME280;42558;52.388;13.390;2022-07-01T07:44:08;100737.86;;;24.97;65.49
56681;BME280;42558;52.388;13.390;2022-07-01T07:46:35;100732.50;;;25.42;64.69
56681;BME280;42558;52.388;13.390;2022-07-01T07:49:02;100735.89;;;25.76;63.00
56681;BME280;42558;52.388;13.390;2022-07-01T07:51:29;100736.02;;;25.81;63.40
56681;BME280;42558;52.388;13.390;2022-07-01T07:53:56;100735.91;;;26.12;63.30
56681;BME280;42558;52.388;13.390;2022-07-01T07:56:23;100730.77;;;26.38;60.74
56681;BME280;42558;52.388;13.390;2022-07-01T07:58:50;100734.23;;;26.34;61.26
56681;BME280;42558;52.388;13.390;2022-07-01T08:01:17;100730.77;;;26.59;59.82
56681;BME280;42558;52.388;13.390;2022-07-01T08:03:43;100734.16;;;26.89;59.56
56681;BME280;42558;52.388;13.390;2022-07-01T08:06:12;100732.87;;;27.06;57.59
56681;BME280;42558;52.388;13.390;2022-07-01T08:08:39;100729.55;;;26.98;57.52
56681;BME280;42558;52.388;13.390;2022-07-01T08:11:06;100732.31;;;26.80;58.00
56681;BME280;42558;52.388;13.390;2022-07-01T08:13:33;100724.40;;;27.09;57.00
56681;BME280;42558;52.388;13.390;2022-07-01T08:16:01;100732.00;;;27.26;57.49
56681;BME280;42558;52.388;13.390;2022-07-01T08:18:28;100735.63;;;27.25;56.96
56681;BME280;42558;52.388;13.390;2022-07-01T08:20:56;100742.24;;;27.00;56.84
56681;BME280;42558;52.388;13.390;2022-07-01T08:23:23;100744.90;;;27.27;57.02
56681;BME280;42558;52.388;13.390;2022-07-01T08:25:51;100748.07;;;27.28;57.48
56681;BME280;42558;52.388;13.390;2022-07-01T08:28:18;100750.48;;;27.21;58.31
56681;BME280;42558;52.388;13.390;2022-07-01T08:30:45;100751.06;;;27.43;57.40
56681;BME280;42558;52.388;13.390;2022-07-01T08:33:13;100754.08;;;27.34;58.12
56681;BME280;42558;52.388;13.390;2022-07-01T08:35:40;100755.22;;;27.07;57.59
56681;BME280;42558;52.388;13.390;2022-07-01T08:38:08;100756.11;;;27.14;58.07
56681;BME280;42558;52.388;13.390;2022-07-01T08:40:34;100751.11;;;27.45;56.46
56681;BME280;42558;52.388;13.390;2022-07-01T08:43:06;100755.93;;;27.40;56.76
56681;BME280;42558;52.388;13.390;2022-07-01T08:45:36;100753.25;;;27.19;56.08
56681;BME280;42558;52.388;13.390;2022-07-01T08:48:05;100755.87;;;27.12;57.11
56681;BME280;42558;52.388;13.390;2022-07-01T08:50:40;100753.99;;;27.13;57.74
56681;BME280;42558;52.388;13.390;2022-07-01T08:53:09;100756.70;;;27.29;57.20
56681;BME280;42558;52.388;13.390;2022-07-01T08:55:36;100761.09;;;27.41;57.03
56681;BME280;42558;52.388;13.390;2022-07-01T08:58:26;100762.95;;;26.91;56.68
56681;BME280;42558;52.388;13.390;2022-07-01T09:01:13;100775.97;;;27.07;57.33
56681;BME280;42558;52.388;13.390;2022-07-01T09:03:40;100777.27;;;27.16;55.92
56681;BME280;42558;52.388;13.390;2022-07-01T09:06:15;100781.67;;;26.95;56.15
56681;BME280;42558;52.388;13.390;2022-07-01T09:08:43;100784.36;;;26.55;56.90
56681;BME280;42558;52.388;13.390;2022-07-01T09:11:24;100790.35;;;26.11;57.89
56681;BME280;42558;52.388;13.390;2022-07-01T09:16:49;100812.83;;;25.18;61.14
56681;BME280;42558;52.388;13.390;2022-07-01T09:19:20;100834.05;;;23.78;67.37
56681;BME280;42558;52.388;13.390;2022-07-01T09:21:59;100853.69;;;22.90;70.56
56681;BME280;42558;52.388;13.390;2022-07-01T09:24:30;100857.48;;;22.64;72.70
56681;BME280;42558;52.388;13.390;2022-07-01T09:27:07;100865.98;;;22.52;72.34
56681;BME280;42558;52.388;13.390;2022-07-01T09:29:46;100883.73;;;21.73;75.30
56681;BME280;42558;52.388;13.390;2022-07-01T09:32:19;100884.42;;;21.67;75.09
56681;BME280;42558;52.388;13.390;2022-07-01T09:34:50;100890.95;;;21.82;74.06
56681;BME280;42558;52.388;13.390;2022-07-01T09:37:22;100893.95;;;21.09;75.65
56681;BME280;42558;52.388;13.390;2022-07-01T09:39:57;100905.02;;;20.70;77.84
56681;BME280;42558;52.388;13.390;2022-07-01T09:42:27;100907.59;;;20.68;77.78
56681;BME280;42558;52.388;13.390;2022-07-01T09:45:04;100912.33;;;20.50;78.26
56681;BME280;42558;52.388;13.390;2022-07-01T09:47:40;100917.46;;;20.52;78.26
56681;BME280;42558;52.388;13.390;2022-07-01T09:50:09;100928.70;;;20.52;78.38
56681;BME280;42558;52.388;13.390;2022-07-01T09:52:36;100941.23;;;20.43;78.60
56681;BME280;42558;52.388;13.390;2022-07-01T09:55:07;100951.97;;;19.86;80.24
56681;BME280;42558;52.388;13.390;2022-07-01T09:57:35;100958.73;;;19.79;80.91
56681;BME280;42558;52.388;13.390;2022-07-01T10:00:05;100962.88;;;19.77;80.48
56681;BME280;42558;52.388;13.390;2022-07-01T10:02:34;100962.36;;;19.49;81.56
56681;BME280;42558;52.388;13.390;2022-07-01T10:05:17;100965.98;;;19.45;81.41
56681;BME280;42558;52.388;13.390;2022-07-01T10:08:26;100973.80;;;19.18;82.74
56681;BME280;42558;52.388;13.390;2022-07-01T10:14:06;100987.52;;;19.09;83.32
56681;BME280;42558;52.388;13.390;2022-07-01T10:16:35;100998.86;;;19.04;83.49
56681;BME280;42558;52.388;13.390;2022-07-01T10:21:47;100998.50;;;18.82;85.02
56681;BME280;42558;52.388;13.390;2022-07-01T10:24:18;101011.17;;;18.68;86.06
56681;BME280;42558;52.388;13.390;2022-07-01T10:26:46;101006.05;;;18.78;85.07
56681;BME280;42558;52.388;13.390;2022-07-01T10:29:35;101007.27;;;18.91;84.98
56681;BME280;42558;52.388;13.390;2022-07-01T10:32:26;101012.05;;;18.93;84.52
56681;BME280;42558;52.388;13.390;2022-07-01T10:35:15;101024.61;;;18.63;85.24
56681;BME280;42558;52.388;13.390;2022-07-01T10:38:01;101023.71;;;18.51;86.87
56681;BME280;42558;52.388;13.390;2022-07-01T10:43:16;101039.86;;;18.56;86.77
56681;BME280;42558;52.388;13.390;2022-07-01T10:45:54;101045.58;;;18.41;86.89
56681;BME280;42558;52.388;13.390;2022-07-01T10:48:23;101044.79;;;18.34;87.24
56681;BME280;42558;52.388;13.390;2022-07-01T10:50:52;101051.56;;;18.34;88.03
56681;BME280;42558;52.388;13.390;2022-07-01T10:53:20;101063.25;;;18.26;88.97
56681;BME280;42558;52.388;13.390;2022-07-01T10:55:53;101070.32;;;18.15;88.99
56681;BME280;42558;52.388;13.390;2022-07-01T10:58:39;101080.60;;;17.88;90.45
56681;BME280;42558;52.388;13.390;2022-07-01T11:01:06;101084.00;;;17.70;91.88
56681;BME280;42558;52.388;13.390;2022-07-01T11:03:38;101062.45;;;17.72;92.19
56681;BME280;42558;52.388;13.390;2022-07-01T11:06:07;101048.54;;;17.77;92.14
56681;BME280;42558;52.388;13.390;2022-07-01T11:08:34;101053.09;;;17.84;91.15
56681;BME280;42558;52.388;13.390;2022-07-01T11:11:03;101059.72;;;17.80;91.85
56681;BME280;42558;52.388;13.390;2022-07-01T11:13:34;101062.02;;;17.81;91.55
56681;BME280;42558;52.388;13.390;2022-07-01T11:16:01;101074.05;;;17.68;91.46
56681;BME280;42558;52.388;13.390;2022-07-01T11:18:29;101073.27;;;17.56;91.96
56681;BME280;42558;52.388;13.390;2022-07-01T11:21:08;101071.24;;;17.45;92.65
56681;BME280;42558;52.388;13.390;2022-07-01T11:23:36;101058.87;;;17.39;93.26
56681;BME280;42558;52.388;13.390;2022-07-01T11:26:07;101055.19;;;17.31;93.49
56681;BME280;42558;52.388;13.390;2022-07-01T11:28:45;101028.66;;;17.19;95.53
56681;BME280;42558;52.388;13.390;2022-07-01T11:31:12;101016.42;;;17.17;98.74
56681;BME280;42558;52.388;13.390;2022-07-01T11:33:39;101017.85;;;17.16;99.95
56681;BME280;42558;52.388;13.390;2022-07-01T11:36:06;101015.84;;;17.02;100.00
56681;BME280;42558;52.388;13.390;2022-07-01T11:38:54;101002.80;;;17.10;100.00
56681;BME280;42558;52.388;13.390;2022-07-01T11:41:40;101005.16;;;17.25;100.00
56681;BME280;42558;52.388;13.390;2022-07-01T11:44:07;101006.24;;;17.02;100.00
56681;BME280;42558;52.388;13.390;2022-07-01T11:46:34;101001.20;;;17.11;100.00
56681;BME280;42558;52.388;13.390;2022-07-01T11:49:11;101018.09;;;17.28;100.00
56681;BME280;42558;52.388;13.390;2022-07-01T11:51:41;101024.60;;;17.52;100.00
56681;BME280;42558;52.388;13.390;2022-07-01T11:54:20;101027.73;;;17.41;100.00
56681;BME280;42558;52.388;13.390;2022-07-01T11:56:49;101032.19;;;17.22;100.00
56681;BME280;42558;52.388;13.390;2022-07-01T11:59:17;101025.45;;;17.21;100.00
56681;BME280;42558;52.388;13.390;2022-07-01T12:01:54;101022.27;;;17.18;100.00
56681;BME280;42558;52.388;13.390;2022-07-01T12:04:21;101024.92;;;17.20;100.00
56681;BME280;42558;52.388;13.390;2022-07-01T12:06:49;101020.45;;;17.24;100.00
56681;BME280;42558;52.388;13.390;2022-07-01T12:09:18;101006.64;;;17.36;100.00
56681;BME280;42558;52.388;13.390;2022-07-01T12:11:49;101000.93;;;17.38;100.00
56681;BME280;42558;52.388;13.390;2022-07-01T12:14:30;100991.13;;;17.39;100.00
56681;BME280;42558;52.388;13.390;2022-07-01T12:17:00;100973.91;;;17.54;99.22
56681;BME280;42558;52.388;13.390;2022-07-01T12:19:37;100966.91;;;17.59;99.55
56681;BME280;42558;52.388;13.390;2022-07-01T12:22:20;100979.10;;;17.65;98.92
56681;BME280;42558;52.388;13.390;2022-07-01T12:24:47;100992.55;;;17.73;98.41
56681;BME280;42558;52.388;13.390;2022-07-01T12:27:15;100997.35;;;17.41;96.41
56681;BME280;42558;52.388;13.390;2022-07-01T12:32:16;101000.24;;;17.52;97.54
56681;BME280;42558;52.388;13.390;2022-07-01T12:34:59;101001.26;;;17.41;97.30
56681;BME280;42558;52.388;13.390;2022-07-01T12:37:37;101008.67;;;17.27;97.65
56681;BME280;42558;52.388;13.390;2022-07-01T12:40:21;101010.77;;;17.32;98.27
56681;BME280;42558;52.388;13.390;2022-07-01T12:42:48;101022.03;;;17.43;97.33
56681;BME280;42558;52.388;13.390;2022-07-01T12:45:22;101030.48;;;17.51;96.70
56681;BME280;42558;52.388;13.390;2022-07-01T12:47:52;101032.62;;;17.49;96.39
56681;BME280;42558;52.388;13.390;2022-07-01T12:50:27;101038.38;;;17.60;95.40
56681;BME280;42558;52.388;13.390;2022-07-01T12:53:12;101044.42;;;17.43;95.85
56681;BME280;42558;52.388;13.390;2022-07-01T12:55:44;101054.97;;;17.37;96.35
56681;BME280;42558;52.388;13.390;2022-07-01T12:58:18;101058.34;;;17.37;95.83
56681;BME280;42558;52.388;13.390;2022-07-01T13:00:49;101075.05;;;17.37;96.38
56681;BME280;42558;52.388;13.390;2022-07-01T13:03:22;101085.81;;;17.26;95.25
56681;BME280;42558;52.388;13.390;2022-07-01T13:05:52;101096.77;;;17.13;95.00